sensor_id;sensor_type;location;lat;lon;timestamp;pressure;altitude;pressure_sealevel;temperature;humidity
20987;BME280;10652;50.306;8.570;2023-04-29T00:01:18;97607.31;;;10.37;100.00
20987;BME280;10652;50.306;8.570;2023-04-29T00:05:21;97602.38;;;10.31;100.00
20987;BME280;10652;50.306;8.570;2023-04-29T00:09:23;97606.25;;;10.24;100.00
20987;BME280;10652;50.306;8.570;2023-04-29T00:13:25;97609.97;;;10.20;100.00
20987;BME280;10652;50.306;8.570;2023-04-29T00:17:27;97616.22;;;10.18;100.00
20987;BME280;10652;50.306;8.570;2023-04-29T00:21:30;97621.81;;;10.12;100.00
20987;BME280;10652;50.306;8.570;2023-04-29T00:25:34;97617.72;;;10.06;100.00
20987;BME280;10652;50.306;8.570;2023-04-29T00:29:36;97619.72;;;10.01;100.00
20987;BME280;10652;50.306;8.570;2023-04-29T00:33:38;97613.78;;;9.97;100.00
20987;BME280;10652;50.306;8.570;2023-04-29T00:37:41;97616.81;;;9.90;100.00
20987;BME280;10652;50.306;8.570;2023-04-29T00:41:44;97612.56;;;9.87;100.00
20987;BME280;10652;50.306;8.570;2023-04-29T00:45:46;97617.88;;;9.86;100.00
20987;BME280;10652;50.306;8.570;2023-04-29T00:49:48;97612.56;;;9.87;100.00
20987;BME280;10652;50.306;8.570;2023-04-29T00:53:50;97617.63;;;9.90;100.00
20987;BME280;10652;50.306;8.570;2023-04-29T00:57:52;97609.63;;;9.93;100.00
20987;BME280;10652;50.306;8.570;2023-04-29T01:01:54;97611.25;;;9.96;100.00
20987;BME280;10652;50.306;8.570;2023-04-29T01:06:14;97617.88;;;10.03;100.00
20987;BME280;10652;50.306;8.570;2023-04-29T01:10:26;97617.25;;;10.15;100.00
20987;BME280;10652;50.306;8.570;2023-04-29T01:14:31;97621.75;;;10.29;100.00
20987;BME280;10652;50.306;8.570;2023-04-29T01:18:45;97621.72;;;10.46;100.00
20987;BME280;10652;50.306;8.570;2023-04-29T01:22:52;97622.25;;;10.53;100.00
20987;BME280;10652;50.306;8.570;2023-04-29T01:27:00;97622.94;;;10.56;100.00
20987;BME280;10652;50.306;8.570;2023-04-29T01:31:57;97619.38;;;10.57;100.00
20987;BME280;10652;50.306;8.570;2023-04-29T01:36:14;97617.84;;;10.53;100.00
20987;BME280;10652;50.306;8.570;2023-04-29T01:40:29;97618.84;;;10.51;100.00
20987;BME280;10652;50.306;8.570;2023-04-29T01:44:41;97624.88;;;10.53;100.00
20987;BME280;10652;50.306;8.570;2023-04-29T01:48:45;97620.22;;;10.58;100.00
20987;BME280;10652;50.306;8.570;2023-04-29T01:52:47;97620.06;;;10.61;100.00
20987;BME280;10652;50.306;8.570;2023-04-29T01:56:50;97630.06;;;10.70;100.00
20987;BME280;10652;50.306;8.570;2023-04-29T02:01:03;97629.88;;;10.73;100.00
20987;BME280;10652;50.306;8.570;2023-04-29T02:05:07;97630.66;;;10.75;100.00
20987;BME280;10652;50.306;8.570;2023-04-29T02:09:14;97635.31;;;10.70;100.00
20987;BME280;10652;50.306;8.570;2023-04-29T02:13:23;97633.72;;;10.67;100.00
20987;BME280;10652;50.306;8.570;2023-04-29T02:17:25;97630.25;;;10.67;100.00
20987;BME280;10652;50.306;8.570;2023-04-29T02:21:27;97638.25;;;10.64;100.00
20987;BME280;10652;50.306;8.570;2023-04-29T02:25:29;97634.88;;;10.62;100.00
20987;BME280;10652;50.306;8.570;2023-04-29T02:29:33;97636.50;;;10.64;100.00
20987;BME280;10652;50.306;8.570;2023-04-29T02:33:35;97649.38;;;10.69;100.00
20987;BME280;10652;50.306;8.570;2023-04-29T02:37:37;97645.81;;;10.70;100.00
20987;BME280;10652;50.306;8.570;2023-04-29T02:41:39;97644.47;;;10.63;100.00
20987;BME280;10652;50.306;8.570;2023-04-29T02:45:45;97645.09;;;10.51;100.00
20987;BME280;10652;50.306;8.570;2023-04-29T02:49:47;97655.00;;;10.45;100.00
20987;BME280;10652;50.306;8.570;2023-04-29T02:53:49;97660.34;;;10.44;100.00
20987;BME280;10652;50.306;8.570;2023-04-29T02:57:52;97671.25;;;10.36;100.00
20987;BME280;10652;50.306;8.570;2023-04-29T03:01:54;97667.06;;;10.32;100.00
20987;BME280;10652;50.306;8.570;2023-04-29T03:05:56;97661.81;;;10.32;100.00
20987;BME280;10652;50.306;8.570;2023-04-29T03:09:58;97667.06;;;10.32;100.00
20987;BME280;10652;50.306;8.570;2023-04-29T03:14:00;97666.22;;;10.32;100.00
20987;BME280;10652;50.306;8.570;2023-04-29T03:18:02;97670.78;;;10.28;100.00
20987;BME280;10652;50.306;8.570;2023-04-29T03:22:07;97664.00;;;10.24;100.00
20987;BME280;10652;50.306;8.570;2023-04-29T03:26:13;97667.53;;;10.40;100.00
20987;BME280;10652;50.306;8.570;2023-04-29T03:30:16;97674.72;;;10.37;100.00
20987;BME280;10652;50.306;8.570;2023-04-29T03:34:23;97665.78;;;10.24;100.00
20987;BME280;10652;50.306;8.570;2023-04-29T03:38:40;97667.91;;;10.17;100.00
20987;BME280;10652;50.306;8.570;2023-04-29T03:42:43;97673.63;;;10.08;100.00
20987;BME280;10652;50.306;8.570;2023-04-29T03:46:45;97679.78;;;9.90;100.00
20987;BME280;10652;50.306;8.570;2023-04-29T03:50:47;97675.13;;;9.78;100.00
20987;BME280;10652;50.306;8.570;2023-04-29T03:54:49;97673.16;;;9.64;100.00
20987;BME280;10652;50.306;8.570;2023-04-29T03:58:52;97673.47;;;9.58;100.00
20987;BME280;10652;50.306;8.570;2023-04-29T04:02:57;97674.00;;;9.47;100.00
20987;BME280;10652;50.306;8.570;2023-04-29T04:07:00;97677.06;;;9.38;100.00
20987;BME280;10652;50.306;8.570;2023-04-29T04:11:08;97692.31;;;9.30;100.00
20987;BME280;10652;50.306;8.570;2023-04-29T04:15:16;97701.09;;;9.29;100.00
20987;BME280;10652;50.306;8.570;2023-04-29T04:19:18;97702.16;;;9.25;100.00
20987;BME280;10652;50.306;8.570;2023-04-29T04:23:20;97699.75;;;9.21;100.00
20987;BME280;10652;50.306;8.570;2023-04-29T04:27:22;97710.66;;;9.30;100.00
20987;BME280;10652;50.306;8.570;2023-04-29T04:31:24;97713.59;;;9.41;100.00
20987;BME280;10652;50.306;8.570;2023-04-29T04:35:27;97714.88;;;9.51;100.00
20987;BME280;10652;50.306;8.570;2023-04-29T04:39:29;97717.75;;;9.64;100.00
20987;BME280;10652;50.306;8.570;2023-04-29T04:43:32;97716.13;;;9.62;100.00
20987;BME280;10652;50.306;8.570;2023-04-29T04:47:36;97723.91;;;9.63;100.00
20987;BME280;10652;50.306;8.570;2023-04-29T04:51:45;97729.47;;;10.10;100.00
20987;BME280;10652;50.306;8.570;2023-04-29T04:55:48;97720.88;;;11.40;98.96
20987;BME280;10652;50.306;8.570;2023-04-29T04:59:50;97730.91;;;11.78;89.84
20987;BME280;10652;50.306;8.570;2023-04-29T05:03:53;97738.09;;;12.06;86.94
20987;BME280;10652;50.306;8.570;2023-04-29T05:07:55;97745.34;;;11.40;84.07
20987;BME280;10652;50.306;8.570;2023-04-29T05:12:05;97740.94;;;10.76;87.13
20987;BME280;10652;50.306;8.570;2023-04-29T05:16:07;97753.03;;;10.29;91.27
20987;BME280;10652;50.306;8.570;2023-04-29T05:20:13;97756.34;;;10.15;93.67
20987;BME280;10652;50.306;8.570;2023-04-29T05:24:15;97760.22;;;10.08;94.06
20987;BME280;10652;50.306;8.570;2023-04-29T05:28:18;97764.34;;;9.95;94.88
20987;BME280;10652;50.306;8.570;2023-04-29T05:32:21;97764.19;;;9.81;95.40
20987;BME280;10652;50.306;8.570;2023-04-29T05:36:23;97766.81;;;9.81;94.94
20987;BME280;10652;50.306;8.570;2023-04-29T05:40:25;97771.50;;;9.74;95.29
20987;BME280;10652;50.306;8.570;2023-04-29T05:44:36;97778.22;;;9.80;96.03
20987;BME280;10652;50.306;8.570;2023-04-29T05:48:40;97789.63;;;9.79;95.26
20987;BME280;10652;50.306;8.570;2023-04-29T05:52:43;97795.50;;;9.84;96.17
20987;BME280;10652;50.306;8.570;2023-04-29T05:56:45;97803.16;;;9.88;95.54
20987;BME280;10652;50.306;8.570;2023-04-29T06:00:47;97802.72;;;9.97;95.97
20987;BME280;10652;50.306;8.570;2023-04-29T06:04:55;97807.91;;;9.99;95.36
20987;BME280;10652;50.306;8.570;2023-04-29T06:09:19;97810.66;;;9.96;95.68
20987;BME280;10652;50.306;8.570;2023-04-29T06:13:31;97822.47;;;10.04;95.91
20987;BME280;10652;50.306;8.570;2023-04-29T06:17:33;97829.22;;;10.10;95.91
20987;BME280;10652;50.306;8.570;2023-04-29T06:21:35;97839.72;;;10.10;95.39
20987;BME280;10652;50.306;8.570;2023-04-29T06:25:38;97844.97;;;10.10;95.20
20987;BME280;10652;50.306;8.570;2023-04-29T06:29:41;97846.66;;;10.11;95.72
20987;BME280;10652;50.306;8.570;2023-04-29T06:33:44;97857.31;;;10.08;95.59
20987;BME280;10652;50.306;8.570;2023-04-29T06:37:47;97861.09;;;10.02;95.65
20987;BME280;10652;50.306;8.570;2023-04-29T06:42:08;97873.06;;;10.08;96.65
20987;BME280;10652;50.306;8.570;2023-04-29T06:46:18;97867.88;;;10.07;96.30
20987;BME280;10652;50.306;8.570;2023-04-29T06:50:32;97880.78;;;10.11;96.53
20987;BME280;10652;50.306;8.570;2023-04-29T06:54:34;97884.56;;;10.41;100.00
20987;BME280;10652;50.306;8.570;2023-04-29T06:58:37;97888.94;;;11.11;100.00
20987;BME280;10652;50.306;8.570;2023-04-29T07:02:41;97885.47;;;11.26;94.90
20987;BME280;10652;50.306;8.570;2023-04-29T07:06:44;97891.38;;;10.97;92.44
20987;BME280;10652;50.306;8.570;2023-04-29T07:10:56;97897.72;;;10.76;93.43
20987;BME280;10652;50.306;8.570;2023-04-29T07:14:58;97911.00;;;10.56;93.29
20987;BME280;10652;50.306;8.570;2023-04-29T07:19:00;97916.97;;;10.40;95.18
20987;BME280;10652;50.306;8.570;2023-04-29T07:23:02;97914.03;;;10.29;96.08
20987;BME280;10652;50.306;8.570;2023-04-29T07:27:05;97913.13;;;10.30;97.54
20987;BME280;10652;50.306;8.570;2023-04-29T07:31:07;97922.53;;;10.34;97.51
20987;BME280;10652;50.306;8.570;2023-04-29T07:35:10;97925.66;;;10.42;98.55
20987;BME280;10652;50.306;8.570;2023-04-29T07:39:12;97928.06;;;10.47;97.32
20987;BME280;10652;50.306;8.570;2023-04-29T07:43:18;97929.34;;;10.38;96.16
20987;BME280;10652;50.306;8.570;2023-04-29T07:47:21;97932.00;;;10.20;97.92
20987;BME280;10652;50.306;8.570;2023-04-29T07:51:23;97946.13;;;10.17;98.85
20987;BME280;10652;50.306;8.570;2023-04-29T07:55:25;97941.91;;;10.32;99.71
20987;BME280;10652;50.306;8.570;2023-04-29T07:59:30;97943.56;;;10.34;99.45
20987;BME280;10652;50.306;8.570;2023-04-29T08:03:32;97948.13;;;10.48;99.97
20987;BME280;10652;50.306;8.570;2023-04-29T08:07:35;97956.28;;;10.61;99.46
20987;BME280;10652;50.306;8.570;2023-04-29T08:11:37;97961.78;;;10.73;98.46
20987;BME280;10652;50.306;8.570;2023-04-29T08:15:40;97963.59;;;10.90;98.17
20987;BME280;10652;50.306;8.570;2023-04-29T08:19:42;97970.06;;;11.00;96.04
20987;BME280;10652;50.306;8.570;2023-04-29T08:23:45;97970.63;;;11.07;94.79
20987;BME280;10652;50.306;8.570;2023-04-29T08:27:47;97976.75;;;11.07;95.13
20987;BME280;10652;50.306;8.570;2023-04-29T08:31:49;97981.25;;;11.22;95.33
20987;BME280;10652;50.306;8.570;2023-04-29T08:35:58;97980.47;;;11.38;95.12
20987;BME280;10652;50.306;8.570;2023-04-29T08:40:05;97982.63;;;11.47;94.48
20987;BME280;10652;50.306;8.570;2023-04-29T08:44:07;97990.06;;;11.39;93.13
20987;BME280;10652;50.306;8.570;2023-04-29T08:48:09;98003.00;;;11.26;94.43
20987;BME280;10652;50.306;8.570;2023-04-29T08:52:11;98000.19;;;11.12;94.62
20987;BME280;10652;50.306;8.570;2023-04-29T08:56:17;98005.78;;;11.04;95.56
20987;BME280;10652;50.306;8.570;2023-04-29T09:00:23;98001.72;;;10.99;96.81
20987;BME280;10652;50.306;8.570;2023-04-29T09:04:47;98007.31;;;10.91;97.01
20987;BME280;10652;50.306;8.570;2023-04-29T09:08:52;98009.91;;;10.74;96.72
20987;BME280;10652;50.306;8.570;2023-04-29T09:12:56;98010.22;;;10.68;97.14
20987;BME280;10652;50.306;8.570;2023-04-29T09:16:59;98018.72;;;10.73;97.76
20987;BME280;10652;50.306;8.570;2023-04-29T09:25:23;98033.81;;;10.51;94.99
20987;BME280;10652;50.306;8.570;2023-04-29T09:29:25;98033.47;;;10.39;96.50
20987;BME280;10652;50.306;8.570;2023-04-29T09:33:27;98029.03;;;11.13;98.38
20987;BME280;10652;50.306;8.570;2023-04-29T09:37:32;98023.84;;;12.29;94.53
20987;BME280;10652;50.306;8.570;2023-04-29T09:41:34;98019.78;;;13.02;87.70
20987;BME280;10652;50.306;8.570;2023-04-29T09:45:38;98023.03;;;13.67;84.20
20987;BME280;10652;50.306;8.570;2023-04-29T09:49:42;98021.16;;;13.83;76.39
20987;BME280;10652;50.306;8.570;2023-04-29T09:53:46;98031.78;;;13.53;70.56
20987;BME280;10652;50.306;8.570;2023-04-29T09:57:48;98028.56;;;13.32;72.58
20987;BME280;10652;50.306;8.570;2023-04-29T10:01:52;98018.88;;;13.47;75.40
20987;BME280;10652;50.306;8.570;2023-04-29T10:05:55;98023.19;;;13.34;71.14
20987;BME280;10652;50.306;8.570;2023-04-29T10:09:57;98027.00;;;13.44;71.93
20987;BME280;10652;50.306;8.570;2023-04-29T10:14:00;98027.06;;;13.72;69.66
20987;BME280;10652;50.306;8.570;2023-04-29T10:18:28;98038.63;;;14.14;68.32
20987;BME280;10652;50.306;8.570;2023-04-29T10:22:39;98035.19;;;14.40;65.12
20987;BME280;10652;50.306;8.570;2023-04-29T10:26:43;98036.72;;;14.58;64.13
20987;BME280;10652;50.306;8.570;2023-04-29T10:30:50;98035.06;;;14.84;63.70
20987;BME280;10652;50.306;8.570;2023-04-29T10:34:54;98029.44;;;15.03;61.28
20987;BME280;10652;50.306;8.570;2023-04-29T10:39:02;98021.63;;;15.14;60.97
20987;BME280;10652;50.306;8.570;2023-04-29T10:43:05;98023.97;;;15.18;61.67
20987;BME280;10652;50.306;8.570;2023-04-29T10:47:19;98030.09;;;15.06;59.71
20987;BME280;10652;50.306;8.570;2023-04-29T10:51:42;98026.63;;;14.92;60.74
20987;BME280;10652;50.306;8.570;2023-04-29T10:55:53;98023.69;;;15.23;60.38
20987;BME280;10652;50.306;8.570;2023-04-29T10:59:57;98032.72;;;15.33;58.96
20987;BME280;10652;50.306;8.570;2023-04-29T11:04:03;98034.78;;;15.15;60.35
20987;BME280;10652;50.306;8.570;2023-04-29T11:08:13;98037.50;;;14.87;59.97
20987;BME280;10652;50.306;8.570;2023-04-29T11:12:19;98046.53;;;14.42;60.64
20987;BME280;10652;50.306;8.570;2023-04-29T11:16:25;98052.34;;;13.76;63.17
20987;BME280;10652;50.306;8.570;2023-04-29T11:20:30;98052.41;;;13.31;64.64
20987;BME280;10652;50.306;8.570;2023-04-29T11:24:33;98057.88;;;13.12;66.25
20987;BME280;10652;50.306;8.570;2023-04-29T11:28:36;98053.22;;;13.31;69.95
20987;BME280;10652;50.306;8.570;2023-04-29T11:32:40;98057.97;;;13.56;71.06
20987;BME280;10652;50.306;8.570;2023-04-29T11:36:43;98061.63;;;13.83;67.92
20987;BME280;10652;50.306;8.570;2023-04-29T11:40:48;98065.44;;;14.08;67.68
20987;BME280;10652;50.306;8.570;2023-04-29T11:44:51;98066.38;;;14.35;67.72
20987;BME280;10652;50.306;8.570;2023-04-29T11:48:56;98072.91;;;14.58;65.09
20987;BME280;10652;50.306;8.570;2023-04-29T11:52:58;98066.16;;;14.52;63.25
20987;BME280;10652;50.306;8.570;2023-04-29T11:57:01;98077.69;;;14.23;63.84
20987;BME280;10652;50.306;8.570;2023-04-29T12:01:05;98070.53;;;14.25;62.92
20987;BME280;10652;50.306;8.570;2023-04-29T12:05:08;98076.09;;;14.20;63.42
20987;BME280;10652;50.306;8.570;2023-04-29T12:09:11;98072.59;;;14.34;63.31
20987;BME280;10652;50.306;8.570;2023-04-29T12:13:14;98078.91;;;14.17;63.15
20987;BME280;10652;50.306;8.570;2023-04-29T12:17:16;98083.91;;;13.93;65.22
20987;BME280;10652;50.306;8.570;2023-04-29T12:21:20;98080.91;;;13.70;65.38
20987;BME280;10652;50.306;8.570;2023-04-29T12:25:25;98082.00;;;13.36;67.29
20987;BME280;10652;50.306;8.570;2023-04-29T12:29:30;98089.09;;;13.20;68.75
20987;BME280;10652;50.306;8.570;2023-04-29T12:33:33;98098.38;;;13.11;70.40
20987;BME280;10652;50.306;8.570;2023-04-29T12:37:35;98097.00;;;13.20;70.55
20987;BME280;10652;50.306;8.570;2023-04-29T12:41:38;98098.19;;;13.30;70.63
20987;BME280;10652;50.306;8.570;2023-04-29T12:45:41;98100.06;;;13.28;71.57
20987;BME280;10652;50.306;8.570;2023-04-29T12:49:44;98097.00;;;13.35;71.61
20987;BME280;10652;50.306;8.570;2023-04-29T12:53:47;98101.56;;;13.32;70.33
20987;BME280;10652;50.306;8.570;2023-04-29T12:57:49;98105.19;;;13.15;71.41
20987;BME280;10652;50.306;8.570;2023-04-29T13:01:51;98116.44;;;13.03;72.04
20987;BME280;10652;50.306;8.570;2023-04-29T13:05:53;98110.56;;;12.98;73.08
20987;BME280;10652;50.306;8.570;2023-04-29T13:09:56;98111.47;;;12.97;73.56
20987;BME280;10652;50.306;8.570;2023-04-29T13:13:58;98112.34;;;12.97;73.66
20987;BME280;10652;50.306;8.570;2023-04-29T13:18:00;98114.38;;;12.92;73.60
20987;BME280;10652;50.306;8.570;2023-04-29T13:22:02;98109.53;;;13.00;74.42
20987;BME280;10652;50.306;8.570;2023-04-29T13:26:04;98106.47;;;12.92;72.82
20987;BME280;10652;50.306;8.570;2023-04-29T13:30:07;98109.28;;;12.89;74.10
20987;BME280;10652;50.306;8.570;2023-04-29T13:34:09;98113.28;;;12.96;75.22
20987;BME280;10652;50.306;8.570;2023-04-29T13:38:12;98116.41;;;13.19;75.11
20987;BME280;10652;50.306;8.570;2023-04-29T13:42:14;98109.69;;;13.29;74.38
20987;BME280;10652;50.306;8.570;2023-04-29T13:46:16;98119.97;;;13.33;74.29
20987;BME280;10652;50.306;8.570;2023-04-29T13:50:21;98126.63;;;13.25;73.07
20987;BME280;10652;50.306;8.570;2023-04-29T13:54:43;98117.19;;;13.05;72.10
20987;BME280;10652;50.306;8.570;2023-04-29T13:58:59;98119.06;;;12.87;73.26
20987;BME280;10652;50.306;8.570;2023-04-29T14:03:04;98121.00;;;12.84;73.64
20987;BME280;10652;50.306;8.570;2023-04-29T14:07:08;98125.25;;;12.86;73.00
20987;BME280;10652;50.306;8.570;2023-04-29T14:11:10;98130.88;;;12.96;73.23
20987;BME280;10652;50.306;8.570;2023-04-29T14:15:12;98124.50;;;13.16;72.07
20987;BME280;10652;50.306;8.570;2023-04-29T14:19:14;98122.34;;;13.22;71.43
20987;BME280;10652;50.306;8.570;2023-04-29T14:23:16;98129.19;;;13.10;69.41
20987;BME280;10652;50.306;8.570;2023-04-29T14:27:18;98132.00;;;13.07;68.94
20987;BME280;10652;50.306;8.570;2023-04-29T14:31:26;98131.22;;;13.05;69.12
20987;BME280;10652;50.306;8.570;2023-04-29T14:35:29;98141.44;;;13.11;69.78
20987;BME280;10652;50.306;8.570;2023-04-29T14:39:32;98143.81;;;13.00;69.11
20987;BME280;10652;50.306;8.570;2023-04-29T14:43:34;98154.19;;;12.88;70.09
20987;BME280;10652;50.306;8.570;2023-04-29T14:47:36;98151.44;;;12.74;70.83
20987;BME280;10652;50.306;8.570;2023-04-29T14:51:38;98164.59;;;12.58;72.10
20987;BME280;10652;50.306;8.570;2023-04-29T14:55:41;98166.63;;;12.36;74.15
20987;BME280;10652;50.306;8.570;2023-04-29T14:59:43;98168.50;;;11.99;75.96
20987;BME280;10652;50.306;8.570;2023-04-29T15:03:45;98168.44;;;11.66;78.96
20987;BME280;10652;50.306;8.570;2023-04-29T15:07:47;98176.66;;;11.42;81.54
20987;BME280;10652;50.306;8.570;2023-04-29T15:11:49;98189.31;;;11.33;83.12
20987;BME280;10652;50.306;8.570;2023-04-29T15:15:51;98203.19;;;11.18;85.55
20987;BME280;10652;50.306;8.570;2023-04-29T15:19:53;98204.81;;;11.02;88.12
20987;BME280;10652;50.306;8.570;2023-04-29T15:23:55;98207.72;;;10.96;89.09
20987;BME280;10652;50.306;8.570;2023-04-29T15:27:58;98202.13;;;10.85;89.19
20987;BME280;10652;50.306;8.570;2023-04-29T15:32:00;98216.44;;;10.78;90.45
20987;BME280;10652;50.306;8.570;2023-04-29T15:36:03;98213.75;;;10.79;90.58
20987;BME280;10652;50.306;8.570;2023-04-29T15:40:05;98224.00;;;10.85;89.76
20987;BME280;10652;50.306;8.570;2023-04-29T15:44:07;98230.81;;;10.89;88.61
20987;BME280;10652;50.306;8.570;2023-04-29T15:48:09;98230.81;;;10.89;87.42
20987;BME280;10652;50.306;8.570;2023-04-29T15:52:12;98236.97;;;10.88;87.26
20987;BME280;10652;50.306;8.570;2023-04-29T15:56:14;98239.88;;;10.82;85.77
20987;BME280;10652;50.306;8.570;2023-04-29T16:00:16;98235.63;;;10.80;85.98
20987;BME280;10652;50.306;8.570;2023-04-29T16:04:19;98247.31;;;10.73;86.76
20987;BME280;10652;50.306;8.570;2023-04-29T16:08:21;98238.88;;;10.66;86.76
20987;BME280;10652;50.306;8.570;2023-04-29T16:12:23;98244.03;;;10.68;86.65
20987;BME280;10652;50.306;8.570;2023-04-29T16:16:25;98248.16;;;10.73;86.53
20987;BME280;10652;50.306;8.570;2023-04-29T16:20:28;98251.50;;;10.77;86.48
20987;BME280;10652;50.306;8.570;2023-04-29T16:24:30;98245.44;;;10.76;85.70
20987;BME280;10652;50.306;8.570;2023-04-29T16:28:32;98247.91;;;10.79;86.02
20987;BME280;10652;50.306;8.570;2023-04-29T16:32:34;98254.69;;;10.85;85.86
20987;BME280;10652;50.306;8.570;2023-04-29T16:36:36;98249.28;;;10.88;85.21
20987;BME280;10652;50.306;8.570;2023-04-29T16:40:38;98240.59;;;10.86;85.82
20987;BME280;10652;50.306;8.570;2023-04-29T16:44:40;98245.78;;;10.87;85.97
20987;BME280;10652;50.306;8.570;2023-04-29T16:48:42;98245.56;;;10.92;84.96
20987;BME280;10652;50.306;8.570;2023-04-29T16:52:44;98250.84;;;10.92;83.17
20987;BME280;10652;50.306;8.570;2023-04-29T16:56:46;98253.53;;;10.90;82.50
20987;BME280;10652;50.306;8.570;2023-04-29T17:00:52;98258.97;;;10.86;82.04
20987;BME280;10652;50.306;8.570;2023-04-29T17:04:54;98258.06;;;10.87;82.64
20987;BME280;10652;50.306;8.570;2023-04-29T17:08:56;98267.25;;;10.97;82.98
20987;BME280;10652;50.306;8.570;2023-04-29T17:12:58;98264.78;;;10.94;82.29
20987;BME280;10652;50.306;8.570;2023-04-29T17:17:00;98265.03;;;10.88;82.18
20987;BME280;10652;50.306;8.570;2023-04-29T17:21:03;98262.41;;;10.88;82.02
20987;BME280;10652;50.306;8.570;2023-04-29T17:25:05;98269.28;;;11.11;85.93
20987;BME280;10652;50.306;8.570;2023-04-29T17:29:09;98262.28;;;11.10;82.35
20987;BME280;10652;50.306;8.570;2023-04-29T17:33:13;98272.31;;;11.02;82.92
20987;BME280;10652;50.306;8.570;2023-04-29T17:37:15;98281.69;;;11.07;82.65
20987;BME280;10652;50.306;8.570;2023-04-29T17:41:18;98280.56;;;11.13;81.94
20987;BME280;10652;50.306;8.570;2023-04-29T17:45:20;98290.19;;;11.14;80.70
20987;BME280;10652;50.306;8.570;2023-04-29T17:49:22;98280.66;;;11.11;80.69
20987;BME280;10652;50.306;8.570;2023-04-29T17:53:24;98284.16;;;11.12;81.21
20987;BME280;10652;50.306;8.570;2023-04-29T17:57:27;98285.91;;;11.11;81.59
20987;BME280;10652;50.306;8.570;2023-04-29T18:01:33;98291.03;;;11.14;81.61
20987;BME280;10652;50.306;8.570;2023-04-29T18:05:35;98291.41;;;11.05;81.65
20987;BME280;10652;50.306;8.570;2023-04-29T18:09:37;98290.56;;;11.05;82.50
20987;BME280;10652;50.306;8.570;2023-04-29T18:13:40;98299.16;;;11.08;83.84
20987;BME280;10652;50.306;8.570;2023-04-29T18:17:42;98301.00;;;11.06;83.61
20987;BME280;10652;50.306;8.570;2023-04-29T18:21:44;98304.56;;;11.05;83.67
20987;BME280;10652;50.306;8.570;2023-04-29T18:25:47;98305.47;;;11.04;83.68
20987;BME280;10652;50.306;8.570;2023-04-29T18:29:49;98314.16;;;11.06;83.53
20987;BME280;10652;50.306;8.570;2023-04-29T18:33:52;98316.78;;;11.06;83.20
20987;BME280;10652;50.306;8.570;2023-04-29T18:37:54;98318.50;;;11.07;84.31
20987;BME280;10652;50.306;8.570;2023-04-29T18:41:56;98317.66;;;11.07;84.41
20987;BME280;10652;50.306;8.570;2023-04-29T18:45:59;98322.31;;;11.00;84.14
20987;BME280;10652;50.306;8.570;2023-04-29T18:50:01;98323.38;;;10.96;84.38
20987;BME280;10652;50.306;8.570;2023-04-29T18:54:04;98319.19;;;10.92;84.45
20987;BME280;10652;50.306;8.570;2023-04-29T18:58:06;98318.88;;;10.79;85.12
20987;BME280;10652;50.306;8.570;2023-04-29T19:02:08;98323.66;;;10.70;85.77
20987;BME280;10652;50.306;8.570;2023-04-29T19:06:11;98329.44;;;10.58;87.47
20987;BME280;10652;50.306;8.570;2023-04-29T19:10:13;98337.06;;;10.43;88.88
20987;BME280;10652;50.306;8.570;2023-04-29T19:14:16;98335.47;;;10.39;90.58
20987;BME280;10652;50.306;8.570;2023-04-29T19:18:18;98338.34;;;10.33;90.78
20987;BME280;10652;50.306;8.570;2023-04-29T19:22:22;98343.72;;;10.30;91.17
20987;BME280;10652;50.306;8.570;2023-04-29T19:26:24;98348.41;;;10.22;91.91
20987;BME280;10652;50.306;8.570;2023-04-29T19:30:26;98352.56;;;10.28;92.46
20987;BME280;10652;50.306;8.570;2023-04-29T19:34:28;98363.94;;;10.28;92.41
20987;BME280;10652;50.306;8.570;2023-04-29T19:38:30;98371.28;;;10.20;91.91
20987;BME280;10652;50.306;8.570;2023-04-29T19:42:32;98367.13;;;10.15;91.62
20987;BME280;10652;50.306;8.570;2023-04-29T19:46:35;98370.66;;;10.14;91.53
20987;BME280;10652;50.306;8.570;2023-04-29T19:50:37;98370.59;;;10.15;91.87
20987;BME280;10652;50.306;8.570;2023-04-29T19:54:39;98373.94;;;10.19;91.71
20987;BME280;10652;50.306;8.570;2023-04-29T19:58:41;98371.28;;;10.20;91.09
20987;BME280;10652;50.306;8.570;2023-04-29T20:02:43;98371.28;;;10.20;91.27
20987;BME280;10652;50.306;8.570;2023-04-29T20:06:46;98374.69;;;10.22;92.10
20987;BME280;10652;50.306;8.570;2023-04-29T20:10:48;98379.75;;;10.27;91.52
20987;BME280;10652;50.306;8.570;2023-04-29T20:14:50;98376.16;;;10.29;91.35
20987;BME280;10652;50.306;8.570;2023-04-29T20:18:52;98380.69;;;10.26;91.66
20987;BME280;10652;50.306;8.570;2023-04-29T20:22:54;98379.81;;;10.25;91.47
20987;BME280;10652;50.306;8.570;2023-04-29T20:26:58;98384.34;;;10.22;90.90
20987;BME280;10652;50.306;8.570;2023-04-29T20:31:01;98381.81;;;10.19;90.77
20987;BME280;10652;50.306;8.570;2023-04-29T20:35:03;98377.50;;;10.18;91.00
20987;BME280;10652;50.306;8.570;2023-04-29T20:39:06;98390.94;;;10.10;90.92
20987;BME280;10652;50.306;8.570;2023-04-29T20:43:10;98390.94;;;10.10;91.49
20987;BME280;10652;50.306;8.570;2023-04-29T20:47:12;98386.31;;;10.17;91.69
20987;BME280;10652;50.306;8.570;2023-04-29T20:51:14;98378.34;;;10.18;91.09
20987;BME280;10652;50.306;8.570;2023-04-29T20:55:16;98385.81;;;10.07;91.14
20987;BME280;10652;50.306;8.570;2023-04-29T20:59:18;98382.06;;;9.91;91.74
20987;BME280;10652;50.306;8.570;2023-04-29T21:03:20;98390.53;;;9.76;93.02
20987;BME280;10652;50.306;8.570;2023-04-29T21:07:23;98399.06;;;9.57;94.64
20987;BME280;10652;50.306;8.570;2023-04-29T21:11:25;98393.34;;;9.46;96.20
20987;BME280;10652;50.306;8.570;2023-04-29T21:15:27;98386.66;;;9.39;97.18
20987;BME280;10652;50.306;8.570;2023-04-29T21:19:30;98388.56;;;9.34;97.79
20987;BME280;10652;50.306;8.570;2023-04-29T21:23:32;98389.59;;;9.30;99.17
20987;BME280;10652;50.306;8.570;2023-04-29T21:27:34;98392.22;;;9.30;99.22
20987;BME280;10652;50.306;8.570;2023-04-29T21:31:37;98395.88;;;9.26;99.32
20987;BME280;10652;50.306;8.570;2023-04-29T21:35:39;98390.84;;;9.20;100.00